createdAt,value
2023-11-08T00:01:32.182Z,75.24
2023-11-08T00:05:23.309Z,75.28
2023-11-08T00:09:11.864Z,75.48
2023-11-08T00:13:06.334Z,75.95
2023-11-08T00:16:54.848Z,76.00
2023-11-08T00:20:43.422Z,75.89
2023-11-08T00:24:24.911Z,76.25
2023-11-08T00:28:13.439Z,76.26
2023-11-08T00:32:01.933Z,76.18
2023-11-08T00:35:50.430Z,76.27
2023-11-08T00:39:39.005Z,76.59
2023-11-08T00:43:27.654Z,76.52
2023-11-08T00:47:27.170Z,76.49
2023-11-08T00:51:08.820Z,76.29
2023-11-08T00:54:49.099Z,76.14
2023-11-08T00:58:31.334Z,76.05
2023-11-08T01:02:19.837Z,76.09
2023-11-08T01:06:09.016Z,76.21
2023-11-08T01:09:50.506Z,76.27
2023-11-08T01:13:39.056Z,76.34
2023-11-08T01:17:27.573Z,76.29
2023-11-08T01:21:16.269Z,76.38
2023-11-08T01:25:02.998Z,76.07
2023-11-08T01:28:51.572Z,75.77
2023-11-08T01:32:40.135Z,75.53
2023-11-08T01:36:22.477Z,76.11
2023-11-08T01:40:11.127Z,76.43
2023-11-08T01:43:58.653Z,76.88
2023-11-08T01:47:46.551Z,77.25
2023-11-08T01:51:36.552Z,77.40
2023-11-08T01:55:18.290Z,77.39
2023-11-08T01:59:06.797Z,77.44
2023-11-08T02:02:48.144Z,77.63
2023-11-08T02:06:26.873Z,77.47
2023-11-08T02:10:15.408Z,77.04
2023-11-08T02:18:24.734Z,77.59
2023-11-08T02:22:17.051Z,77.86
2023-11-08T02:26:05.683Z,78.31
2023-11-08T02:29:54.195Z,78.50
2023-11-08T02:33:42.777Z,78.26
2023-11-08T02:37:29.493Z,78.24
2023-11-08T02:41:17.974Z,78.41
2023-11-08T02:45:06.566Z,78.71
2023-11-08T02:49:09.369Z,78.69
2023-11-08T02:53:04.106Z,78.78
2023-11-08T02:56:32.258Z,78.90
2023-11-08T03:00:24.202Z,78.88
2023-11-08T03:04:12.782Z,78.90
2023-11-08T03:08:02.896Z,79.33
2023-11-08T03:11:51.428Z,79.42
2023-11-08T03:15:40.912Z,79.44
2023-11-08T03:19:28.342Z,79.32
2023-11-08T03:23:27.510Z,79.54
2023-11-08T03:27:16.052Z,79.71
2023-11-08T03:31:15.600Z,80.02
2023-11-08T03:35:04.088Z,80.17
2023-11-08T03:38:53.186Z,80.27
2023-11-08T03:42:42.263Z,80.40
2023-11-08T03:46:37.728Z,80.29
2023-11-08T03:50:19.394Z,80.49
2023-11-08T03:54:08.971Z,80.46
2023-11-08T03:57:57.592Z,80.59
2023-11-08T04:01:44.786Z,80.93
2023-11-08T04:05:12.954Z,81.22
2023-11-08T04:09:07.872Z,81.46
2023-11-08T04:12:29.341Z,82.00
2023-11-08T04:16:25.064Z,81.94
2023-11-08T04:20:13.812Z,81.89
2023-11-08T04:24:18.442Z,81.84
2023-11-08T04:28:05.732Z,81.78
2023-11-08T04:31:56.264Z,81.90
2023-11-08T04:35:44.873Z,81.95
2023-11-08T04:39:49.771Z,81.87
2023-11-08T04:43:17.935Z,81.70
2023-11-08T04:47:10.520Z,81.76
2023-11-08T04:50:59.009Z,81.40
2023-11-08T04:54:57.775Z,81.67
2023-11-08T04:58:46.320Z,81.83
2023-11-08T05:02:38.928Z,81.75
2023-11-08T05:06:28.303Z,81.58
2023-11-08T05:10:18.173Z,81.69
2023-11-08T05:14:08.866Z,81.62
2023-11-08T05:17:49.890Z,81.86
2023-11-08T05:21:38.633Z,81.88
2023-11-08T05:25:27.172Z,81.81
2023-11-08T05:29:08.925Z,81.62
2023-11-08T05:32:58.315Z,81.59
2023-11-08T05:36:47.104Z,81.72
2023-11-08T05:40:25.038Z,82.22
2023-11-08T05:43:51.684Z,82.87
2023-11-08T05:47:47.716Z,83.75
2023-11-08T05:51:30.252Z,84.52
2023-11-08T05:55:09.890Z,84.78
2023-11-08T05:58:51.103Z,84.60
2023-11-08T06:02:39.945Z,84.73
2023-11-08T06:06:28.721Z,85.16
2023-11-08T06:10:17.617Z,85.74
2023-11-08T06:14:06.460Z,85.83
2023-11-08T06:17:54.191Z,86.02
2023-11-08T06:21:35.861Z,86.06
2023-11-08T06:25:09.899Z,86.15
2023-11-08T06:28:57.693Z,86.25
2023-11-08T06:32:46.294Z,86.43
2023-11-08T06:36:22.204Z,86.19
2023-11-08T06:40:10.810Z,86.46
2023-11-08T06:43:58.115Z,87.06
2023-11-08T06:47:32.330Z,87.44
2023-11-08T06:51:17.186Z,87.71
2023-11-08T06:55:04.364Z,88.04
2023-11-08T06:58:53.513Z,88.23
2023-11-08T07:02:30.080Z,88.72
2023-11-08T07:06:18.696Z,89.25
2023-11-08T07:10:07.297Z,89.52
2023-11-08T07:13:48.337Z,89.64
2023-11-08T07:17:36.950Z,89.62
2023-11-08T07:21:25.581Z,89.69
2023-11-08T07:25:07.776Z,89.95
2023-11-08T07:28:57.519Z,90.14
2023-11-08T07:32:49.545Z,90.25
2023-11-08T07:36:31.359Z,90.51
2023-11-08T07:40:20.620Z,90.70
2023-11-08T07:44:08.319Z,90.30
2023-11-08T07:47:57.154Z,90.21
2023-11-08T07:51:52.965Z,90.19
2023-11-08T07:55:41.581Z,90.11
2023-11-08T07:59:30.353Z,90.07
2023-11-08T08:03:12.849Z,90.04
2023-11-08T08:07:02.936Z,90.24
2023-11-08T08:10:51.633Z,90.84
2023-11-08T08:14:40.230Z,91.46
2023-11-08T08:18:30.599Z,91.69
2023-11-08T08:26:54.369Z,92.27
2023-11-08T08:30:36.230Z,92.50
2023-11-08T08:34:30.864Z,92.32
2023-11-08T08:38:13.022Z,92.58
2023-11-08T08:42:07.525Z,92.90
2023-11-08T08:45:56.135Z,93.02
2023-11-08T08:49:44.906Z,93.56
2023-11-08T08:53:35.400Z,93.46
2023-11-08T08:57:23.634Z,93.68
2023-11-08T09:01:27.621Z,93.65
2023-11-08T09:05:16.168Z,93.65
2023-11-08T09:09:05.302Z,93.71
2023-11-08T09:12:53.698Z,93.75
2023-11-08T09:16:42.290Z,93.75
2023-11-08T09:20:29.338Z,93.89
2023-11-08T09:24:16.755Z,94.14
2023-11-08T09:28:05.403Z,94.06
2023-11-08T09:31:53.983Z,94.44
2023-11-08T09:35:30.703Z,94.28
2023-11-08T09:39:20.065Z,94.51
2023-11-08T09:43:08.768Z,94.68
2023-11-08T09:46:57.592Z,94.72
2023-11-08T09:50:52.074Z,94.95
2023-11-08T09:54:40.649Z,95.13
2023-11-08T09:58:29.345Z,95.16
2023-11-08T10:02:19.590Z,94.93
2023-11-08T10:06:08.331Z,95.15
2023-11-08T10:09:56.167Z,95.31
2023-11-08T10:13:45.850Z,95.51
2023-11-08T10:19:31.248Z,95.47
2023-11-08T10:30:56.976Z,96.44
2023-11-08T10:34:57.882Z,96.51
2023-11-08T10:38:46.514Z,96.67
2023-11-08T10:47:10.865Z,96.77
2023-11-08T10:51:00.378Z,97.01
2023-11-08T10:54:49.122Z,97.29
2023-11-08T10:58:37.709Z,97.44
2023-11-08T11:02:22.536Z,97.43
2023-11-08T11:10:02.387Z,97.99
2023-11-08T11:14:06.307Z,97.66
2023-11-08T11:18:01.521Z,97.80
2023-11-08T11:21:53.032Z,97.66
2023-11-08T11:25:41.613Z,97.74
2023-11-08T11:29:48.700Z,98.05
2023-11-08T11:33:32.431Z,97.81
2023-11-08T11:37:33.192Z,97.89
2023-11-08T11:41:28.569Z,97.95
2023-11-08T11:45:26.206Z,98.07
2023-11-08T11:49:16.922Z,98.04
2023-11-08T11:53:05.621Z,98.12
2023-11-08T11:56:57.525Z,98.05
2023-11-08T12:00:44.764Z,98.06
2023-11-08T12:08:45.507Z,97.66
2023-11-08T12:13:11.751Z,97.86
2023-11-08T12:17:02.500Z,97.99
2023-11-08T12:20:53.310Z,97.87
2023-11-08T12:24:50.570Z,98.30
2023-11-08T12:28:40.010Z,98.37
2023-11-08T12:32:40.763Z,98.40
2023-11-08T12:36:29.392Z,98.53
2023-11-08T12:40:22.483Z,98.78
2023-11-08T12:44:14.219Z,98.88
2023-11-08T12:48:02.838Z,99.16
2023-11-08T12:51:51.491Z,99.04
2023-11-08T12:55:41.897Z,99.12
2023-11-08T12:59:30.481Z,99.03
2023-11-08T13:03:16.677Z,99.14
2023-11-08T13:07:05.722Z,98.95
2023-11-08T13:10:57.468Z,99.14
2023-11-08T13:14:39.138Z,99.25
2023-11-08T13:18:29.242Z,99.24
2023-11-08T13:22:19.806Z,99.49
2023-11-08T13:26:08.993Z,99.54
2023-11-08T13:29:57.825Z,99.56
2023-11-08T13:33:41.395Z,99.57
2023-11-08T13:37:33.182Z,99.72
2023-11-08T13:41:22.303Z,99.82
2023-11-08T13:45:51.778Z,99.81
2023-11-08T13:49:49.052Z,99.63
2023-11-08T13:53:27.005Z,99.47
2023-11-08T13:57:19.447Z,99.43
2023-11-08T14:01:11.908Z,99.29
2023-11-08T14:05:02.149Z,99.07
2023-11-08T14:08:43.881Z,99.37
2023-11-08T14:12:32.704Z,99.48
2023-11-08T14:16:21.602Z,99.58
2023-11-08T14:20:10.199Z,99.79
2023-11-08T14:23:51.634Z,99.72
2023-11-08T14:27:33.491Z,99.77
2023-11-08T14:31:23.152Z,99.80
2023-11-08T14:35:13.058Z,99.75
2023-11-08T14:39:02.446Z,99.87
2023-11-08T14:42:50.175Z,99.96
2023-11-08T14:46:15.802Z,99.96
2023-11-08T14:49:43.387Z,99.97
2023-11-08T14:53:23.937Z,99.96
2023-11-08T14:56:58.862Z,99.99
2023-11-08T15:00:48.646Z,100.00
2023-11-08T15:04:37.557Z,100.00
2023-11-08T15:09:49.674Z,100.00
2023-11-08T15:12:19.142Z,100.00
2023-11-08T15:16:09.794Z,100.00
2023-11-08T15:19:58.161Z,100.00
2023-11-08T15:23:45.941Z,100.00
2023-11-08T15:27:34.740Z,100.00
2023-11-08T15:31:23.753Z,100.00
2023-11-08T15:35:11.228Z,100.00
2023-11-08T15:38:38.530Z,100.00
2023-11-08T15:42:22.571Z,100.00
2023-11-08T15:46:11.351Z,100.00
2023-11-08T15:49:47.841Z,100.00
2023-11-08T15:53:36.542Z,100.00
2023-11-08T15:57:16.943Z,100.00
2023-11-08T16:01:08.282Z,100.00
2023-11-08T16:04:44.065Z,100.00
2023-11-08T16:12:51.680Z,100.00
2023-11-08T16:16:39.295Z,100.00
2023-11-08T16:20:29.958Z,100.00
2023-11-08T16:24:08.259Z,100.00
2023-11-08T16:27:53.800Z,100.00
2023-11-08T16:32:32.324Z,100.00
2023-11-08T16:35:49.781Z,100.00
2023-11-08T16:39:18.130Z,100.00
2023-11-08T16:43:09.683Z,100.00
2023-11-08T16:46:58.562Z,100.00
2023-11-08T16:50:33.013Z,100.00
2023-11-08T16:54:21.984Z,100.00
2023-11-08T16:58:10.586Z,100.00
2023-11-08T17:01:55.899Z,100.00
2023-11-08T17:05:33.921Z,100.00
2023-11-08T17:09:07.671Z,100.00
2023-11-08T17:12:41.656Z,100.00
2023-11-08T17:16:35.480Z,100.00
2023-11-08T17:20:16.240Z,100.00
2023-11-08T17:23:47.160Z,100.00
2023-11-08T17:27:19.101Z,100.00
2023-11-08T17:30:48.022Z,100.00
2023-11-08T17:34:13.260Z,100.00
2023-11-08T17:38:03.649Z,100.00
2023-11-08T17:41:52.254Z,100.00
2023-11-08T17:50:01.626Z,100.00
2023-11-08T17:53:40.270Z,100.00
2023-11-08T17:56:47.303Z,100.00
2023-11-08T18:05:29.389Z,100.00
2023-11-08T18:09:10.673Z,100.00
2023-11-08T18:12:59.444Z,100.00
2023-11-08T18:16:31.210Z,100.00
2023-11-08T18:20:19.858Z,100.00
2023-11-08T18:24:08.525Z,100.00
2023-11-08T18:27:58.829Z,100.00
2023-11-08T18:31:47.585Z,100.00
2023-11-08T18:39:49.202Z,100.00
2023-11-08T18:43:38.059Z,100.00
2023-11-08T18:47:26.994Z,100.00
2023-11-08T18:51:11.408Z,100.00
2023-11-08T18:54:50.511Z,100.00
2023-11-08T18:58:42.639Z,100.00
2023-11-08T19:02:31.276Z,100.00
2023-11-08T19:06:20.693Z,100.00
2023-11-08T19:10:02.763Z,100.00
2023-11-08T19:13:50.346Z,100.00
2023-11-08T19:17:41.087Z,100.00
2023-11-08T19:21:24.690Z,100.00
2023-11-08T19:25:06.282Z,100.00
2023-11-08T19:28:27.968Z,100.00
2023-11-08T19:41:36.333Z,100.00
2023-11-08T19:45:04.124Z,100.00
2023-11-08T19:48:51.723Z,100.00
2023-11-08T19:53:02.758Z,100.00
2023-11-08T19:57:19.178Z,100.00
2023-11-08T20:01:07.931Z,100.00
2023-11-08T20:32:07.706Z,100.00
2023-11-08T21:12:56.108Z,100.00
2023-11-08T21:16:44.849Z,100.00
2023-11-08T21:25:20.504Z,100.00
2023-11-08T21:29:02.524Z,100.00
2023-11-08T21:55:00.812Z,100.00
2023-11-08T23:00:11.849Z,97.20
2023-11-08T23:03:53.289Z,97.21
2023-11-08T23:07:34.645Z,97.18
2023-11-08T23:11:23.186Z,96.61
2023-11-08T23:47:32.240Z,95.20
